createdAt,value
2018-08-10T00:00:45.779Z,892.51
2018-08-10T00:01:45.772Z,892.50
2018-08-10T00:02:45.766Z,892.54
2018-08-10T00:03:45.762Z,892.51
2018-08-10T00:04:45.752Z,892.51
2018-08-10T00:05:45.742Z,892.51
2018-08-10T00:06:45.740Z,892.50
2018-08-10T00:07:45.735Z,892.52
2018-08-10T00:08:45.759Z,892.52
2018-08-10T00:09:45.715Z,892.56
2018-08-10T00:10:45.709Z,892.59
2018-08-10T00:11:45.699Z,892.58
2018-08-10T00:12:45.693Z,892.58
2018-08-10T00:13:45.680Z,892.59
2018-08-10T00:14:45.677Z,892.61
2018-08-10T00:15:45.669Z,892.58
2018-08-10T00:16:45.666Z,892.62
2018-08-10T00:17:45.650Z,892.63
2018-08-10T00:18:45.649Z,892.64
2018-08-10T00:19:45.636Z,892.60
2018-08-10T00:20:45.626Z,892.61
2018-08-10T00:21:45.625Z,892.60
2018-08-10T00:22:45.613Z,892.58
2018-08-10T00:23:45.615Z,892.59
2018-08-10T00:24:45.601Z,892.57
2018-08-10T00:25:45.582Z,892.55
2018-08-10T00:26:45.579Z,892.58
2018-08-10T00:27:45.578Z,892.54
2018-08-10T00:28:45.572Z,892.52
2018-08-10T00:29:45.561Z,892.52
2018-08-10T00:30:45.552Z,892.51
2018-08-10T00:31:45.545Z,892.51
2018-08-10T00:32:45.539Z,892.51
2018-08-10T00:33:45.533Z,892.56
2018-08-10T00:34:45.522Z,892.53
2018-08-10T00:35:45.528Z,892.54
2018-08-10T00:36:45.508Z,892.54
2018-08-10T00:37:45.496Z,892.52
2018-08-10T00:38:45.488Z,892.47
2018-08-10T00:39:45.480Z,892.47
2018-08-10T00:40:45.473Z,892.46
2018-08-10T00:41:45.478Z,892.52
2018-08-10T00:42:45.468Z,892.50
2018-08-10T00:43:45.451Z,892.52
2018-08-10T00:44:45.444Z,892.48
2018-08-10T00:45:45.439Z,892.48
2018-08-10T00:46:45.433Z,892.49
2018-08-10T00:47:45.421Z,892.49
2018-08-10T00:48:45.413Z,892.50
2018-08-10T00:49:45.404Z,892.49
2018-08-10T00:50:45.404Z,892.53
2018-08-10T00:51:45.388Z,892.50
2018-08-10T00:52:45.384Z,892.51
2018-08-10T00:53:45.370Z,892.53
2018-08-10T00:54:45.360Z,892.54
2018-08-10T00:55:45.358Z,892.52
2018-08-10T00:56:45.346Z,892.49
2018-08-10T00:57:45.341Z,892.52
2018-08-10T00:58:45.338Z,892.49
2018-08-10T00:59:45.329Z,892.46
2018-08-10T01:00:45.315Z,892.50
2018-08-10T01:01:45.310Z,892.53
2018-08-10T01:02:45.303Z,892.51
2018-08-10T01:03:45.299Z,892.53
2018-08-10T01:04:45.289Z,892.49
2018-08-10T01:05:45.278Z,892.53
2018-08-10T01:06:45.269Z,892.57
2018-08-10T01:07:45.264Z,892.56
2018-08-10T01:08:45.256Z,892.57
2018-08-10T01:09:45.244Z,892.65
2018-08-10T01:10:45.242Z,892.61
2018-08-10T01:11:45.236Z,892.60
2018-08-10T01:12:45.224Z,892.65
2018-08-10T01:13:45.220Z,892.62
2018-08-10T01:14:45.205Z,892.65
2018-08-10T01:15:45.208Z,892.70
2018-08-10T01:16:45.197Z,892.66
2018-08-10T01:17:45.187Z,892.67
2018-08-10T01:18:45.181Z,892.65
2018-08-10T01:19:45.172Z,892.67
2018-08-10T01:20:45.161Z,892.70
2018-08-10T01:21:45.154Z,892.70
2018-08-10T01:22:45.142Z,892.69
2018-08-10T01:23:45.142Z,892.74
2018-08-10T01:24:45.139Z,892.73
2018-08-10T01:25:45.126Z,892.71
2018-08-10T01:26:45.117Z,892.72
2018-08-10T01:27:45.107Z,892.74
2018-08-10T01:28:45.224Z,892.77
2018-08-10T01:29:45.095Z,892.77
2018-08-10T01:30:45.084Z,892.77
2018-08-10T01:31:45.078Z,892.82
2018-08-10T01:32:45.068Z,892.81
2018-08-10T01:33:45.063Z,892.79
2018-08-10T01:34:45.053Z,892.82
2018-08-10T01:35:45.045Z,892.87
2018-08-10T01:36:45.035Z,892.85
2018-08-10T01:37:45.030Z,892.84
2018-08-10T01:38:45.019Z,892.86
2018-08-10T01:39:45.008Z,892.82
2018-08-10T01:40:45.008Z,892.84
2018-08-10T01:41:44.996Z,892.84
2018-08-10T01:42:44.991Z,892.85
2018-08-10T01:43:44.983Z,892.86
2018-08-10T01:44:44.979Z,892.87
2018-08-10T01:45:44.965Z,892.84
2018-08-10T01:46:44.960Z,892.85
2018-08-10T01:47:44.951Z,892.89
2018-08-10T01:48:44.939Z,892.89
2018-08-10T01:49:44.940Z,892.93
2018-08-10T01:50:44.923Z,892.90
2018-08-10T01:51:44.919Z,892.93
2018-08-10T01:52:44.913Z,892.93
2018-08-10T01:53:44.902Z,892.96
2018-08-10T01:54:44.903Z,892.97
2018-08-10T01:55:44.889Z,892.97
2018-08-10T01:56:44.877Z,893.01
2018-08-10T01:57:44.875Z,892.99
2018-08-10T01:58:44.865Z,892.99
2018-08-10T01:59:44.856Z,893.01
2018-08-10T02:00:44.849Z,892.99
2018-08-10T02:01:44.844Z,892.97
2018-08-10T02:02:44.834Z,892.99
2018-08-10T02:03:44.825Z,892.96
2018-08-10T02:04:44.814Z,892.95
2018-08-10T02:05:44.809Z,892.96
2018-08-10T02:06:44.804Z,892.93
2018-08-10T02:07:44.795Z,892.92
2018-08-10T02:08:44.789Z,892.92
2018-08-10T02:09:44.779Z,892.96
2018-08-10T02:10:44.777Z,892.94
2018-08-10T02:11:44.761Z,892.96
2018-08-10T02:12:44.761Z,892.94
2018-08-10T02:13:44.754Z,892.95
2018-08-10T02:14:44.737Z,892.98
2018-08-10T02:15:44.735Z,892.96
2018-08-10T02:16:44.726Z,892.92
2018-08-10T02:17:44.717Z,892.95
2018-08-10T02:18:44.713Z,892.95
2018-08-10T02:19:44.698Z,892.94
2018-08-10T02:20:44.692Z,892.94
2018-08-10T02:21:44.683Z,892.91
2018-08-10T02:22:44.677Z,892.91
2018-08-10T02:23:44.672Z,892.90
2018-08-10T02:24:44.683Z,892.90
2018-08-10T02:25:44.655Z,892.88
2018-08-10T02:26:44.653Z,892.86
2018-08-10T02:27:44.635Z,892.84
2018-08-10T02:28:44.631Z,892.84
2018-08-10T02:29:44.623Z,892.81
2018-08-10T02:30:44.615Z,892.84
2018-08-10T02:31:44.614Z,892.81
2018-08-10T02:32:44.602Z,892.82
2018-08-10T02:33:44.595Z,892.79
2018-08-10T02:34:44.588Z,892.80
2018-08-10T02:35:44.577Z,892.85
2018-08-10T02:36:44.565Z,892.82
2018-08-10T02:37:44.562Z,892.81
2018-08-10T02:38:44.553Z,892.84
2018-08-10T02:39:44.549Z,892.87
2018-08-10T02:40:44.542Z,892.86
2018-08-10T02:41:44.530Z,892.85
2018-08-10T02:42:44.524Z,892.85
2018-08-10T02:43:44.517Z,892.81
2018-08-10T02:44:44.511Z,892.77
2018-08-10T02:45:44.494Z,892.76
2018-08-10T02:46:44.492Z,892.73
2018-08-10T02:47:44.493Z,892.74
2018-08-10T02:48:44.481Z,892.71
2018-08-10T02:49:44.472Z,892.76
2018-08-10T02:50:44.461Z,892.76
2018-08-10T02:51:44.457Z,892.76
2018-08-10T02:52:44.446Z,892.74
2018-08-10T02:53:44.435Z,892.71
2018-08-10T02:54:44.432Z,892.72
2018-08-10T02:55:44.424Z,892.72
2018-08-10T02:56:44.414Z,892.74
2018-08-10T02:57:44.410Z,892.71
2018-08-10T02:58:44.400Z,892.69
2018-08-10T02:59:44.390Z,892.72
2018-08-10T03:00:44.380Z,892.71
2018-08-10T03:01:44.377Z,892.70
2018-08-10T03:02:44.370Z,892.71
2018-08-10T03:03:44.354Z,892.72
2018-08-10T03:04:44.353Z,892.74
2018-08-10T03:05:44.341Z,892.74
2018-08-10T03:06:44.333Z,892.75
2018-08-10T03:07:44.331Z,892.72
2018-08-10T03:08:44.322Z,892.70
2018-08-10T03:09:44.313Z,892.70
2018-08-10T03:10:44.305Z,892.70
2018-08-10T03:11:44.297Z,892.66
2018-08-10T03:12:44.285Z,892.68
2018-08-10T03:13:44.277Z,892.67
2018-08-10T03:14:44.277Z,892.66
2018-08-10T03:15:44.270Z,892.65
2018-08-10T03:16:44.253Z,892.71
2018-08-10T03:17:44.249Z,892.68
2018-08-10T03:18:44.247Z,892.68
2018-08-10T03:19:44.239Z,892.70
2018-08-10T03:20:44.231Z,892.72
2018-08-10T03:21:44.219Z,892.72
2018-08-10T03:22:44.210Z,892.75
2018-08-10T03:23:44.204Z,892.71
2018-08-10T03:24:44.197Z,892.77
2018-08-10T03:25:44.188Z,892.80
2018-08-10T03:26:44.182Z,892.81
2018-08-10T03:27:44.179Z,892.86
2018-08-10T03:28:44.163Z,892.88
2018-08-10T03:29:44.155Z,892.90
2018-08-10T03:30:44.148Z,892.92
2018-08-10T03:31:44.135Z,892.89
2018-08-10T03:32:44.135Z,892.90
2018-08-10T03:33:44.123Z,892.89
2018-08-10T03:34:44.119Z,892.93
2018-08-10T03:35:44.106Z,892.92
2018-08-10T03:36:44.098Z,892.90
2018-08-10T03:37:44.094Z,892.92
2018-08-10T03:38:44.091Z,892.96
2018-08-10T03:39:44.078Z,892.91
2018-08-10T03:40:44.067Z,892.89
2018-08-10T03:41:44.057Z,892.94
2018-08-10T03:42:44.051Z,892.95
2018-08-10T03:43:44.041Z,892.93
2018-08-10T03:44:44.036Z,892.93
2018-08-10T03:45:44.026Z,892.95
2018-08-10T03:46:44.018Z,892.91
2018-08-10T03:47:44.010Z,892.89
2018-08-10T03:48:44.001Z,892.84
2018-08-10T03:49:44.044Z,892.84
2018-08-10T03:50:43.987Z,892.81
2018-08-10T03:51:43.978Z,892.79
2018-08-10T03:52:43.977Z,892.79
2018-08-10T03:53:43.961Z,892.77
2018-08-10T03:54:43.960Z,892.74
2018-08-10T03:55:43.942Z,892.74
2018-08-10T03:56:43.938Z,892.72
2018-08-10T03:57:43.927Z,892.72
2018-08-10T03:58:43.923Z,892.74
2018-08-10T03:59:43.915Z,892.73
2018-08-10T04:00:43.909Z,892.71
2018-08-10T04:01:43.898Z,892.70
2018-08-10T04:02:43.884Z,892.72
2018-08-10T04:03:43.878Z,892.75
2018-08-10T04:04:43.878Z,892.75
2018-08-10T04:05:43.862Z,892.77
2018-08-10T04:06:43.857Z,892.83
2018-08-10T04:07:43.860Z,892.87
2018-08-10T04:08:43.843Z,892.83
2018-08-10T04:09:43.828Z,892.86
2018-08-10T04:10:43.824Z,892.90
2018-08-10T04:11:43.812Z,892.87
2018-08-10T04:12:43.810Z,892.91
2018-08-10T04:13:43.806Z,892.89
2018-08-10T04:14:43.792Z,892.91
2018-08-10T04:15:43.781Z,892.90
2018-08-10T04:16:43.782Z,892.89
2018-08-10T04:17:43.768Z,892.89
2018-08-10T04:18:43.760Z,892.87
2018-08-10T04:19:43.752Z,892.90
2018-08-10T04:20:43.744Z,892.91
2018-08-10T04:21:43.731Z,892.90
2018-08-10T04:22:43.729Z,892.91
2018-08-10T04:23:43.712Z,892.94
2018-08-10T04:24:43.706Z,892.93
2018-08-10T04:25:43.698Z,892.90
2018-08-10T04:26:43.692Z,892.95
2018-08-10T04:27:43.688Z,892.98
2018-08-10T04:28:43.672Z,892.97
2018-08-10T04:29:43.750Z,892.97
2018-08-10T04:30:43.657Z,892.98
2018-08-10T04:31:43.646Z,892.97
2018-08-10T04:32:43.635Z,892.93
2018-08-10T04:33:43.628Z,892.91
2018-08-10T04:34:43.627Z,892.91
2018-08-10T04:35:43.619Z,892.88
2018-08-10T04:36:43.607Z,892.92
2018-08-10T04:37:43.603Z,892.99
2018-08-10T04:38:43.583Z,892.96
2018-08-10T04:39:43.583Z,892.97
2018-08-10T04:40:43.570Z,893.01
2018-08-10T04:41:43.562Z,893.05
2018-08-10T04:42:43.558Z,893.04
2018-08-10T04:43:43.544Z,893.07
2018-08-10T04:44:43.541Z,893.03
2018-08-10T04:45:43.523Z,893.12
2018-08-10T04:46:43.519Z,893.09
2018-08-10T04:47:43.515Z,893.11
2018-08-10T04:48:43.504Z,893.13
2018-08-10T04:49:43.494Z,893.13
2018-08-10T04:50:43.490Z,893.19
2018-08-10T04:51:43.480Z,893.23
2018-08-10T04:52:43.472Z,893.23
2018-08-10T04:53:43.460Z,893.22
2018-08-10T04:54:43.454Z,893.23
2018-08-10T04:55:43.445Z,893.25
2018-08-10T04:56:43.435Z,893.27
2018-08-10T04:57:43.426Z,893.25
2018-08-10T04:58:43.415Z,893.24
2018-08-10T04:59:43.407Z,893.24
2018-08-10T05:00:43.399Z,893.23
2018-08-10T05:01:43.387Z,893.21
2018-08-10T05:02:43.385Z,893.23
2018-08-10T05:03:43.404Z,893.24
2018-08-10T05:04:43.360Z,893.27
2018-08-10T05:05:43.356Z,893.27
2018-08-10T05:06:43.342Z,893.28
2018-08-10T05:07:43.343Z,893.32
2018-08-10T05:08:43.324Z,893.30
2018-08-10T05:09:43.328Z,893.31
2018-08-10T05:10:43.311Z,893.31
2018-08-10T05:11:43.300Z,893.34
2018-08-10T05:12:43.291Z,893.33
2018-08-10T05:13:43.285Z,893.31
2018-08-10T05:14:43.275Z,893.38
2018-08-10T05:15:43.294Z,893.36
2018-08-10T05:16:43.262Z,893.40
2018-08-10T05:17:43.247Z,893.45
2018-08-10T05:18:43.242Z,893.43
2018-08-10T05:19:43.234Z,893.42
2018-08-10T05:20:43.221Z,893.44
2018-08-10T05:21:43.210Z,893.45
2018-08-10T05:22:43.208Z,893.46
2018-08-10T05:23:43.201Z,893.45
2018-08-10T05:24:43.220Z,893.46
2018-08-10T05:25:43.174Z,893.52
2018-08-10T05:26:43.166Z,893.54
2018-08-10T05:27:43.156Z,893.55
2018-08-10T05:28:43.152Z,893.55
2018-08-10T05:29:43.142Z,893.59
2018-08-10T05:30:43.131Z,893.62
2018-08-10T05:31:43.125Z,893.64
2018-08-10T05:32:43.113Z,893.66
2018-08-10T05:33:43.105Z,893.71
2018-08-10T05:34:43.115Z,893.73
2018-08-10T05:35:43.087Z,893.75
2018-08-10T05:36:43.074Z,893.75
2018-08-10T05:37:43.068Z,893.76
2018-08-10T05:38:43.060Z,893.77
2018-08-10T05:39:43.049Z,893.80
2018-08-10T05:40:43.036Z,893.82
2018-08-10T05:41:43.025Z,893.82
2018-08-10T05:42:43.023Z,893.82
2018-08-10T05:43:43.012Z,893.83
2018-08-10T05:44:43.008Z,893.93
2018-08-10T05:45:43.001Z,893.95
2018-08-10T05:46:43.026Z,893.91
2018-08-10T05:47:42.971Z,894.01
2018-08-10T05:48:42.960Z,894.02
2018-08-10T05:49:42.959Z,894.04
2018-08-10T05:50:42.946Z,894.05
2018-08-10T05:51:42.937Z,894.08
2018-08-10T05:52:42.927Z,894.10
2018-08-10T05:53:42.919Z,894.15
2018-08-10T05:54:42.913Z,894.13
2018-08-10T05:55:42.903Z,894.16
2018-08-10T05:56:42.893Z,894.16
2018-08-10T05:57:42.884Z,894.15
2018-08-10T05:58:42.874Z,894.15
2018-08-10T05:59:42.865Z,894.19
2018-08-10T06:00:42.918Z,894.19
2018-08-10T06:01:42.844Z,894.25
2018-08-10T06:02:42.836Z,894.23
2018-08-10T06:03:42.839Z,894.27
2018-08-10T06:04:42.820Z,894.33
2018-08-10T06:05:42.810Z,894.30
2018-08-10T06:06:42.805Z,894.29
2018-08-10T06:07:42.785Z,894.30
2018-08-10T06:08:42.784Z,894.35
2018-08-10T06:09:42.769Z,894.35
2018-08-10T06:10:42.765Z,894.37
2018-08-10T06:11:42.752Z,894.42
2018-08-10T06:12:42.744Z,894.42
2018-08-10T06:13:42.734Z,894.39
2018-08-10T06:14:42.728Z,894.42
2018-08-10T06:15:42.712Z,894.39
2018-08-10T06:16:42.705Z,894.41
2018-08-10T06:17:42.701Z,894.41
2018-08-10T06:18:42.687Z,894.39
2018-08-10T06:19:42.830Z,894.42
2018-08-10T06:20:42.671Z,894.46
2018-08-10T06:21:42.729Z,894.48
2018-08-10T06:22:42.697Z,894.52
2018-08-10T06:23:42.639Z,894.51
2018-08-10T06:24:42.634Z,894.51
2018-08-10T06:25:42.616Z,894.56
2018-08-10T06:26:42.614Z,894.58
2018-08-10T06:27:42.656Z,894.57
2018-08-10T06:28:42.596Z,894.59
2018-08-10T06:29:42.582Z,894.57
2018-08-10T06:30:42.579Z,894.55
2018-08-10T06:31:42.630Z,894.59
2018-08-10T06:32:42.563Z,894.59
2018-08-10T06:33:42.582Z,894.57
2018-08-10T06:34:42.538Z,894.55
2018-08-10T06:35:42.524Z,894.60
2018-08-10T06:36:42.518Z,894.62
2018-08-10T06:37:42.504Z,894.61
2018-08-10T06:38:42.502Z,894.65
2018-08-10T06:39:42.500Z,894.71
2018-08-10T06:40:42.480Z,894.70
2018-08-10T06:41:42.468Z,894.69
2018-08-10T06:42:42.460Z,894.71
2018-08-10T06:43:42.457Z,894.68
2018-08-10T06:44:42.456Z,894.69
2018-08-10T06:45:42.434Z,894.69
2018-08-10T06:46:42.426Z,894.75
2018-08-10T06:47:42.418Z,894.78
2018-08-10T06:48:42.411Z,894.80
2018-08-10T06:49:42.391Z,894.81
2018-08-10T06:50:42.385Z,894.83
2018-08-10T06:51:42.375Z,894.85
2018-08-10T06:52:42.364Z,894.84
2018-08-10T06:53:42.358Z,894.88
2018-08-10T06:54:42.343Z,894.87
2018-08-10T06:55:42.406Z,894.92
2018-08-10T06:56:42.329Z,894.92
2018-08-10T06:57:42.326Z,894.93
2018-08-10T06:58:42.309Z,894.92
2018-08-10T06:59:42.302Z,894.91
2018-08-10T07:00:42.363Z,894.90
2018-08-10T07:01:42.319Z,894.96
2018-08-10T07:02:42.268Z,894.93
2018-08-10T07:03:42.266Z,894.95
2018-08-10T07:04:42.251Z,894.93
2018-08-10T07:05:42.238Z,894.93
2018-08-10T07:06:42.237Z,894.92
2018-08-10T07:07:42.237Z,894.92
2018-08-10T07:08:42.214Z,894.89
2018-08-10T07:09:42.208Z,894.91
2018-08-10T07:10:42.196Z,894.93
2018-08-10T07:11:42.181Z,894.97
2018-08-10T07:12:42.177Z,895.00
2018-08-10T07:13:42.324Z,894.98
2018-08-10T07:14:42.157Z,895.03
2018-08-10T07:15:42.147Z,895.01
2018-08-10T07:16:42.138Z,895.00
2018-08-10T07:17:42.123Z,895.04
2018-08-10T07:18:42.114Z,895.02
2018-08-10T07:19:42.105Z,895.00
2018-08-10T07:20:42.099Z,895.03
2018-08-10T07:21:42.089Z,894.94
2018-08-10T07:22:42.080Z,895.02
2018-08-10T07:23:42.072Z,894.98
2018-08-10T07:24:42.062Z,895.00
2018-08-10T07:25:42.052Z,895.07
2018-08-10T07:26:42.039Z,895.06
2018-08-10T07:27:42.034Z,895.08
2018-08-10T07:28:42.021Z,895.13
2018-08-10T07:29:42.015Z,895.09
2018-08-10T07:30:42.003Z,895.11
2018-08-10T07:31:41.997Z,895.12
2018-08-10T07:32:41.982Z,895.14
2018-08-10T07:33:41.981Z,895.12
2018-08-10T07:34:41.966Z,895.18
2018-08-10T07:35:41.955Z,895.16
2018-08-10T07:36:41.962Z,895.17
2018-08-10T07:37:41.939Z,895.20
2018-08-10T07:38:41.929Z,895.19
2018-08-10T07:39:41.923Z,895.21
2018-08-10T07:40:41.906Z,895.26
2018-08-10T07:41:41.898Z,895.23
2018-08-10T07:42:41.892Z,895.27
2018-08-10T07:43:41.890Z,895.28
2018-08-10T07:44:41.869Z,895.27
2018-08-10T07:45:41.863Z,895.26
2018-08-10T07:46:41.851Z,895.26
2018-08-10T07:47:41.842Z,895.29
2018-08-10T07:48:41.837Z,895.30
2018-08-10T07:49:41.825Z,895.33
2018-08-10T07:50:41.813Z,895.37
2018-08-10T07:51:41.837Z,895.35
2018-08-10T07:52:41.798Z,895.34
2018-08-10T07:53:41.790Z,895.34
2018-08-10T07:54:41.774Z,895.33
2018-08-10T07:55:41.767Z,895.32
2018-08-10T07:56:41.755Z,895.38
2018-08-10T07:57:41.747Z,895.34
2018-08-10T07:58:41.735Z,895.37
2018-08-10T07:59:41.727Z,895.32
2018-08-10T08:00:41.722Z,895.34
2018-08-10T08:01:41.708Z,895.36
2018-08-10T08:02:41.700Z,895.35
2018-08-10T08:03:41.690Z,895.33
2018-08-10T08:04:41.682Z,895.33
2018-08-10T08:05:41.674Z,895.38
2018-08-10T08:06:41.660Z,895.39
2018-08-10T08:07:41.652Z,895.40
2018-08-10T08:08:41.642Z,895.42
2018-08-10T08:09:41.636Z,895.42
2018-08-10T08:10:41.624Z,895.39
2018-08-10T08:11:41.616Z,895.38
2018-08-10T08:12:41.603Z,895.42
2018-08-10T08:13:41.650Z,895.43
2018-08-10T08:14:41.581Z,895.43
2018-08-10T08:15:41.578Z,895.46
2018-08-10T08:16:41.562Z,895.46
2018-08-10T08:17:41.556Z,895.46
2018-08-10T08:18:41.549Z,895.47
2018-08-10T08:19:41.665Z,895.47
2018-08-10T08:20:41.522Z,895.44
2018-08-10T08:21:41.514Z,895.47
2018-08-10T08:22:41.507Z,895.44
2018-08-10T08:23:41.499Z,895.45
2018-08-10T08:24:41.486Z,895.48
2018-08-10T08:25:41.487Z,895.50
2018-08-10T08:26:41.473Z,895.47
2018-08-10T08:27:41.453Z,895.50
2018-08-10T08:28:41.450Z,895.49
2018-08-10T08:29:41.438Z,895.52
2018-08-10T08:30:41.428Z,895.49
2018-08-10T08:31:41.421Z,895.47
2018-08-10T08:32:41.411Z,895.51
2018-08-10T08:33:41.397Z,895.48
2018-08-10T08:34:41.446Z,895.51
2018-08-10T08:35:41.383Z,895.52
2018-08-10T08:36:41.373Z,895.54
2018-08-10T08:37:41.362Z,895.50
2018-08-10T08:38:41.352Z,895.52
2018-08-10T08:39:41.339Z,895.52
2018-08-10T08:40:41.338Z,895.53
2018-08-10T08:41:41.323Z,895.53
2018-08-10T08:42:41.316Z,895.50
2018-08-10T08:43:41.310Z,895.51
2018-08-10T08:44:41.321Z,895.50
2018-08-10T08:45:41.414Z,895.54
2018-08-10T08:46:41.438Z,895.55
2018-08-10T08:47:41.271Z,895.55
2018-08-10T08:48:41.259Z,895.59
2018-08-10T08:49:41.249Z,895.59
2018-08-10T08:50:41.242Z,895.62
2018-08-10T08:51:41.231Z,895.62
2018-08-10T08:52:41.224Z,895.64
2018-08-10T08:53:41.219Z,895.67
2018-08-10T08:54:41.201Z,895.70
2018-08-10T08:55:41.198Z,895.70
2018-08-10T08:56:41.188Z,895.75
2018-08-10T08:57:41.178Z,895.73
2018-08-10T08:58:41.170Z,895.75
2018-08-10T08:59:41.156Z,895.74
2018-08-10T09:00:41.145Z,895.75
2018-08-10T09:01:41.140Z,895.74
2018-08-10T09:02:41.133Z,895.72
2018-08-10T09:03:41.129Z,895.74
2018-08-10T09:04:41.110Z,895.75
2018-08-10T09:05:41.102Z,895.73
2018-08-10T09:06:41.094Z,895.70
2018-08-10T09:07:41.110Z,895.68
2018-08-10T09:08:41.076Z,895.68
2018-08-10T09:09:41.069Z,895.69
2018-08-10T09:10:41.054Z,895.68
2018-08-10T09:11:41.046Z,895.69
2018-08-10T09:12:41.038Z,895.67
2018-08-10T09:13:41.029Z,895.65
2018-08-10T09:14:41.019Z,895.68
2018-08-10T09:15:41.011Z,895.67
2018-08-10T09:16:41.000Z,895.68
2018-08-10T09:17:41.091Z,895.66
2018-08-10T09:18:40.985Z,895.65
2018-08-10T09:19:40.980Z,895.70
2018-08-10T09:20:40.962Z,895.71
2018-08-10T09:21:40.954Z,895.69
2018-08-10T09:22:40.948Z,895.68
2018-08-10T09:23:40.938Z,895.65
2018-08-10T09:24:40.924Z,895.67
2018-08-10T09:25:40.927Z,895.67
2018-08-10T09:26:40.908Z,895.66
2018-08-10T09:27:40.900Z,895.69
2018-08-10T09:28:40.884Z,895.69
2018-08-10T09:29:40.877Z,895.65
2018-08-10T09:30:40.869Z,895.64
2018-08-10T09:31:40.859Z,895.63
2018-08-10T09:32:40.853Z,895.65
2018-08-10T09:33:40.843Z,895.65
2018-08-10T09:34:40.835Z,895.64
2018-08-10T09:35:40.830Z,895.63
2018-08-10T09:36:40.824Z,895.60
2018-08-10T09:37:40.812Z,895.60
2018-08-10T09:38:40.870Z,895.59
2018-08-10T09:39:40.784Z,895.62
2018-08-10T09:40:40.780Z,895.57
2018-08-10T09:41:40.772Z,895.58
2018-08-10T09:42:40.760Z,895.60
2018-08-10T09:43:40.746Z,895.58
2018-08-10T09:44:40.738Z,895.58
2018-08-10T09:45:40.731Z,895.54
2018-08-10T09:46:40.721Z,895.54
2018-08-10T09:47:40.717Z,895.57
2018-08-10T09:48:40.701Z,895.49
2018-08-10T09:49:40.698Z,895.52
2018-08-10T09:50:40.690Z,895.49
2018-08-10T09:51:40.717Z,895.51
2018-08-10T09:52:40.672Z,895.51
2018-08-10T09:53:40.660Z,895.50
2018-08-10T09:54:40.650Z,895.51
2018-08-10T09:55:40.644Z,895.46
2018-08-10T09:56:40.636Z,895.47
2018-08-10T09:57:40.630Z,895.49
2018-08-10T09:58:40.618Z,895.49
2018-08-10T09:59:40.643Z,895.51
2018-08-10T10:00:40.597Z,895.51
2018-08-10T10:01:40.587Z,895.50
2018-08-10T10:02:40.584Z,895.47
2018-08-10T10:03:40.573Z,895.48
2018-08-10T10:04:40.564Z,895.44
2018-08-10T10:05:40.554Z,895.44
2018-08-10T10:06:40.592Z,895.42
2018-08-10T10:07:40.537Z,895.41
2018-08-10T10:08:40.529Z,895.39
2018-08-10T10:09:40.523Z,895.43
2018-08-10T10:10:40.513Z,895.42
2018-08-10T10:11:40.503Z,895.37
2018-08-10T10:12:40.492Z,895.39
2018-08-10T10:13:40.489Z,895.37
2018-08-10T10:14:40.470Z,895.38
2018-08-10T10:15:40.470Z,895.37
2018-08-10T10:16:40.460Z,895.36
2018-08-10T10:17:40.450Z,895.38
2018-08-10T10:18:40.447Z,895.40
2018-08-10T10:19:40.438Z,895.37
2018-08-10T10:20:40.424Z,895.37
2018-08-10T10:21:40.420Z,895.32
2018-08-10T10:22:40.412Z,895.29
2018-08-10T10:23:40.401Z,895.31
2018-08-10T10:24:40.389Z,895.30
2018-08-10T10:25:40.381Z,895.30
2018-08-10T10:26:40.375Z,895.29
2018-08-10T10:27:40.366Z,895.31
2018-08-10T10:28:40.361Z,895.29
2018-08-10T10:29:40.351Z,895.26
2018-08-10T10:30:40.350Z,895.23
2018-08-10T10:31:40.336Z,895.25
2018-08-10T10:32:40.370Z,895.25
2018-08-10T10:33:40.326Z,895.27
2018-08-10T10:34:40.312Z,895.29
2018-08-10T10:35:40.306Z,895.27
2018-08-10T10:36:40.292Z,895.28
2018-08-10T10:37:40.290Z,895.29
2018-08-10T10:38:40.285Z,895.31
2018-08-10T10:39:40.272Z,895.30
2018-08-10T10:40:40.266Z,895.29
2018-08-10T10:41:40.256Z,895.28
2018-08-10T10:42:40.246Z,895.28
2018-08-10T10:43:40.239Z,895.30
2018-08-10T10:44:40.232Z,895.29
2018-08-10T10:45:40.224Z,895.27
2018-08-10T10:46:40.216Z,895.26
2018-08-10T10:47:40.212Z,895.30
2018-08-10T10:48:40.195Z,895.28
2018-08-10T10:49:40.191Z,895.30
2018-08-10T10:50:40.186Z,895.27
2018-08-10T10:51:40.177Z,895.24
2018-08-10T10:52:40.169Z,895.23
2018-08-10T10:53:40.161Z,895.27
2018-08-10T10:54:40.151Z,895.25
2018-08-10T10:55:40.210Z,895.28
2018-08-10T10:56:40.289Z,895.27
2018-08-10T10:57:40.126Z,895.28
2018-08-10T10:58:40.120Z,895.24
2018-08-10T10:59:40.108Z,895.27
2018-08-10T11:00:40.104Z,895.24
2018-08-10T11:01:40.099Z,895.26
2018-08-10T11:02:40.090Z,895.31
2018-08-10T11:03:40.077Z,895.31
2018-08-10T11:04:40.072Z,895.30
2018-08-10T11:05:40.065Z,895.27
2018-08-10T11:06:40.060Z,895.32
2018-08-10T11:07:40.053Z,895.26
2018-08-10T11:08:40.038Z,895.27
2018-08-10T11:09:40.028Z,895.27
2018-08-10T11:10:40.025Z,895.27
2018-08-10T11:11:40.014Z,895.22
2018-08-10T11:12:40.006Z,895.25
2018-08-10T11:13:39.995Z,895.21
2018-08-10T11:14:39.993Z,895.24
2018-08-10T11:15:39.985Z,895.25
2018-08-10T11:16:39.971Z,895.27
2018-08-10T11:17:39.965Z,895.26
2018-08-10T11:18:39.956Z,895.23
2018-08-10T11:19:39.946Z,895.25
2018-08-10T11:20:39.940Z,895.27
2018-08-10T11:21:39.940Z,895.27
2018-08-10T11:22:39.930Z,895.32
2018-08-10T11:23:39.921Z,895.32
2018-08-10T11:24:39.906Z,895.30
2018-08-10T11:25:39.995Z,895.28
2018-08-10T11:26:39.886Z,895.29
2018-08-10T11:27:39.885Z,895.32
2018-08-10T11:28:39.875Z,895.31
2018-08-10T11:29:39.866Z,895.31
2018-08-10T11:30:39.855Z,895.31
2018-08-10T11:31:39.849Z,895.36
2018-08-10T11:32:39.841Z,895.31
2018-08-10T11:33:39.829Z,895.35
2018-08-10T11:34:39.825Z,895.34
2018-08-10T11:35:39.814Z,895.39
2018-08-10T11:36:39.813Z,895.36
2018-08-10T11:37:39.795Z,895.37
2018-08-10T11:38:39.792Z,895.38
2018-08-10T11:39:39.784Z,895.41
2018-08-10T11:40:39.772Z,895.41
2018-08-10T11:41:39.868Z,895.41
2018-08-10T11:42:39.754Z,895.42
2018-08-10T11:43:39.747Z,895.41
2018-08-10T11:44:39.745Z,895.45
2018-08-10T11:45:39.735Z,895.42
2018-08-10T11:46:39.717Z,895.44
2018-08-10T11:47:39.714Z,895.50
2018-08-10T11:48:39.704Z,895.48
2018-08-10T11:49:39.699Z,895.57
2018-08-10T11:50:39.687Z,895.59
2018-08-10T11:51:39.680Z,895.55
2018-08-10T11:52:39.749Z,895.59
2018-08-10T11:53:39.664Z,895.59
2018-08-10T11:54:39.651Z,895.65
2018-08-10T11:55:39.653Z,895.63
2018-08-10T11:56:39.638Z,895.62
2018-08-10T11:57:39.626Z,895.62
2018-08-10T11:58:39.620Z,895.64
2018-08-10T11:59:39.613Z,895.66
2018-08-10T12:00:39.603Z,895.67
2018-08-10T12:01:39.594Z,895.68
2018-08-10T12:02:39.587Z,895.67
2018-08-10T12:03:39.585Z,895.69
2018-08-10T12:04:39.568Z,895.69
2018-08-10T12:05:39.595Z,895.71
2018-08-10T12:06:39.551Z,895.72
2018-08-10T12:07:39.544Z,895.68
2018-08-10T12:08:39.538Z,895.70
2018-08-10T12:09:39.527Z,895.64
2018-08-10T12:10:39.528Z,895.63
2018-08-10T12:11:39.508Z,895.62
2018-08-10T12:12:39.592Z,895.65
2018-08-10T12:13:39.495Z,895.65
2018-08-10T12:14:39.489Z,895.65
2018-08-10T12:15:39.476Z,895.66
2018-08-10T12:16:39.472Z,895.68
2018-08-10T12:17:39.462Z,895.68
2018-08-10T12:18:39.457Z,895.67
2018-08-10T12:19:39.443Z,895.69
2018-08-10T12:20:39.433Z,895.66
2018-08-10T12:21:39.428Z,895.69
2018-08-10T12:22:39.424Z,895.68
2018-08-10T12:23:39.411Z,895.65
2018-08-10T12:24:39.462Z,895.66
2018-08-10T12:25:39.398Z,895.66
2018-08-10T12:26:39.388Z,895.65
2018-08-10T12:27:39.376Z,895.71
2018-08-10T12:28:39.371Z,895.64